createdAt,value
2023-05-09T00:01:50.239Z,61.54
2023-05-09T00:04:38.780Z,61.03
2023-05-09T00:07:27.181Z,61.34
2023-05-09T00:10:16.974Z,60.71
2023-05-09T00:13:06.107Z,60.50
2023-05-09T00:15:54.744Z,61.00
2023-05-09T00:18:43.502Z,60.32
2023-05-09T00:21:31.970Z,60.86
2023-05-09T00:24:20.426Z,60.91
2023-05-09T00:27:10.437Z,61.01
2023-05-09T00:29:58.902Z,60.71
2023-05-09T00:32:47.546Z,60.79
2023-05-09T00:35:36.009Z,61.58
2023-05-09T00:38:24.758Z,61.51
2023-05-09T00:41:13.200Z,60.72
2023-05-09T00:44:03.081Z,60.94
2023-05-09T00:46:51.710Z,60.11
2023-05-09T00:49:40.146Z,60.69
2023-05-09T00:52:28.958Z,60.30
2023-05-09T00:55:17.380Z,60.83
2023-05-09T00:58:06.250Z,60.96
2023-05-09T01:00:55.985Z,60.57
2023-05-09T01:03:45.710Z,59.05
2023-05-09T01:06:39.806Z,60.45
2023-05-09T01:09:34.181Z,59.60
2023-05-09T01:12:27.857Z,59.93
2023-05-09T01:15:21.641Z,59.67
2023-05-09T01:18:16.207Z,60.01
2023-05-09T01:21:08.902Z,60.87
2023-05-09T01:24:14.040Z,61.00
2023-05-09T01:27:17.248Z,60.84
2023-05-09T01:30:09.619Z,60.67
2023-05-09T01:33:01.849Z,60.86
2023-05-09T01:35:53.392Z,61.06
2023-05-09T01:38:43.705Z,60.84
2023-05-09T01:41:32.958Z,61.25
2023-05-09T01:44:23.307Z,62.03
2023-05-09T01:47:13.168Z,62.10
2023-05-09T01:50:02.542Z,61.47
2023-05-09T01:52:54.692Z,61.90
2023-05-09T01:55:44.841Z,61.85
2023-05-09T01:58:35.034Z,62.13
2023-05-09T02:01:23.817Z,62.61
2023-05-09T02:04:14.497Z,62.32
2023-05-09T02:07:03.024Z,62.54
2023-05-09T02:09:52.123Z,62.00
2023-05-09T02:12:41.089Z,62.81
2023-05-09T02:15:30.634Z,62.22
2023-05-09T02:18:19.053Z,62.42
2023-05-09T02:21:08.924Z,62.00
2023-05-09T02:23:57.534Z,62.04
2023-05-09T02:26:45.973Z,61.93
2023-05-09T02:29:40.331Z,61.58
2023-05-09T02:32:32.060Z,61.97
2023-05-09T02:35:20.925Z,62.04
2023-05-09T02:38:11.351Z,62.03
2023-05-09T02:40:59.739Z,62.35
2023-05-09T02:43:48.503Z,61.93
2023-05-09T02:46:36.926Z,61.96
2023-05-09T02:49:32.047Z,62.07
2023-05-09T02:52:21.836Z,62.32
2023-05-09T02:55:12.253Z,61.86
2023-05-09T02:58:12.733Z,61.91
2023-05-09T03:01:02.466Z,61.92
2023-05-09T03:03:51.150Z,61.92
2023-05-09T03:06:41.887Z,62.50
2023-05-09T03:09:30.302Z,62.35
2023-05-09T03:12:20.192Z,62.30
2023-05-09T03:15:09.987Z,63.01
2023-05-09T03:18:00.875Z,62.61
2023-05-09T03:20:49.391Z,62.79
2023-05-09T03:23:38.133Z,62.58
2023-05-09T03:26:27.402Z,63.75
2023-05-09T03:29:18.112Z,63.22
2023-05-09T03:32:06.814Z,63.22
2023-05-09T03:34:55.428Z,63.25
2023-05-09T03:37:43.809Z,63.81
2023-05-09T03:40:32.287Z,63.60
2023-05-09T03:43:27.711Z,63.86
2023-05-09T03:46:17.661Z,63.43
2023-05-09T03:49:08.924Z,63.33
2023-05-09T03:51:58.167Z,63.77
2023-05-09T03:54:48.376Z,64.38
2023-05-09T03:57:37.652Z,63.81
2023-05-09T04:00:26.757Z,64.63
2023-05-09T04:03:25.363Z,64.21
2023-05-09T04:06:15.613Z,64.30
2023-05-09T04:09:05.828Z,64.20
2023-05-09T04:11:54.435Z,63.44
2023-05-09T04:14:43.328Z,64.19
2023-05-09T04:17:31.846Z,63.75
2023-05-09T04:20:21.634Z,63.86
2023-05-09T04:23:10.134Z,63.82
2023-05-09T04:26:00.150Z,63.81
2023-05-09T04:28:49.020Z,63.73
2023-05-09T04:31:39.202Z,63.98
2023-05-09T04:34:29.702Z,63.31
2023-05-09T04:37:23.796Z,63.40
2023-05-09T04:40:13.359Z,63.14
2023-05-09T04:43:08.029Z,62.65
2023-05-09T04:45:57.259Z,63.43
2023-05-09T04:48:46.003Z,62.85
2023-05-09T04:51:34.436Z,63.29
2023-05-09T04:54:24.199Z,63.28
2023-05-09T04:57:18.526Z,62.82
2023-05-09T05:00:14.960Z,63.49
2023-05-09T05:03:03.608Z,63.05
2023-05-09T05:05:52.341Z,62.92
2023-05-09T05:08:40.715Z,62.55
2023-05-09T05:11:31.406Z,62.72
2023-05-09T05:14:20.651Z,62.75
2023-05-09T05:17:09.223Z,62.87
2023-05-09T05:19:58.066Z,63.38
2023-05-09T05:22:48.323Z,63.89
2023-05-09T05:25:36.788Z,63.51
2023-05-09T05:28:26.558Z,63.19
2023-05-09T05:31:15.014Z,63.34
2023-05-09T05:34:03.869Z,63.07
2023-05-09T05:36:53.744Z,63.24
2023-05-09T05:39:42.190Z,63.13
2023-05-09T05:42:30.812Z,61.84
2023-05-09T05:45:20.857Z,63.21
2023-05-09T05:48:12.738Z,63.00
2023-05-09T05:51:01.178Z,62.64
2023-05-09T05:53:52.931Z,63.20
2023-05-09T05:56:41.944Z,62.90
2023-05-09T05:59:31.033Z,63.26
2023-05-09T06:02:20.977Z,63.45
2023-05-09T06:05:10.623Z,63.88
2023-05-09T06:07:59.182Z,62.89
2023-05-09T06:10:47.544Z,63.37
2023-05-09T06:13:35.872Z,63.56
2023-05-09T06:16:27.504Z,63.92
2023-05-09T06:19:17.458Z,63.28
2023-05-09T06:22:05.771Z,62.66
2023-05-09T06:24:54.471Z,63.17
2023-05-09T06:27:43.374Z,62.98
2023-05-09T06:30:31.738Z,63.47
2023-05-09T06:33:20.121Z,62.61
2023-05-09T06:36:10.188Z,62.84
2023-05-09T06:38:58.508Z,62.45
2023-05-09T06:41:46.895Z,62.64
2023-05-09T06:44:44.273Z,63.63
2023-05-09T06:47:32.700Z,63.55
2023-05-09T06:50:21.166Z,63.45
2023-05-09T06:53:10.912Z,64.10
2023-05-09T06:55:59.411Z,63.95
2023-05-09T06:58:47.769Z,63.93
2023-05-09T07:01:36.289Z,63.59
2023-05-09T07:04:24.655Z,63.39
2023-05-09T07:07:13.057Z,64.20
2023-05-09T07:10:11.412Z,63.67
2023-05-09T07:13:00.819Z,63.97
2023-05-09T07:15:49.195Z,63.65
2023-05-09T07:18:37.597Z,64.24
2023-05-09T07:21:25.947Z,64.02
2023-05-09T07:24:14.315Z,64.16
2023-05-09T07:27:05.025Z,64.69
2023-05-09T07:29:53.355Z,63.76
2023-05-09T07:32:41.779Z,65.12
2023-05-09T07:35:30.238Z,64.03
2023-05-09T07:38:18.568Z,63.34
2023-05-09T07:41:07.191Z,63.63
2023-05-09T07:43:56.877Z,63.49
2023-05-09T07:46:45.273Z,63.83
2023-05-09T07:49:33.640Z,63.37
2023-05-09T07:52:21.994Z,64.19
2023-05-09T07:55:12.391Z,62.87
2023-05-09T07:58:00.712Z,62.72
2023-05-09T08:00:50.485Z,64.21
2023-05-09T08:03:38.961Z,63.30
2023-05-09T08:06:27.406Z,62.23
2023-05-09T08:09:16.025Z,62.12
2023-05-09T08:12:04.776Z,63.08
2023-05-09T08:14:53.609Z,61.71
2023-05-09T08:17:43.367Z,61.07
2023-05-09T08:20:31.824Z,59.34
2023-05-09T08:23:20.173Z,60.11
2023-05-09T08:26:08.553Z,60.67
2023-05-09T08:28:56.947Z,61.56
2023-05-09T08:31:45.319Z,59.62
2023-05-09T08:34:35.366Z,59.89
2023-05-09T08:37:23.691Z,60.61
2023-05-09T08:40:12.495Z,60.73
2023-05-09T08:43:01.015Z,59.22
2023-05-09T08:45:52.984Z,61.17
2023-05-09T08:48:41.666Z,60.58
2023-05-09T08:51:32.271Z,58.54
2023-05-09T08:54:22.701Z,59.38
2023-05-09T08:57:11.378Z,59.33
2023-05-09T09:00:00.304Z,60.01
2023-05-09T09:02:48.893Z,58.68
2023-05-09T09:05:41.975Z,58.15
2023-05-09T09:08:32.026Z,60.36
2023-05-09T09:11:22.493Z,60.59
2023-05-09T09:14:13.999Z,59.11
2023-05-09T09:17:02.677Z,59.35
2023-05-09T09:19:51.492Z,59.73
2023-05-09T09:22:44.216Z,60.14
2023-05-09T09:25:33.903Z,59.65
2023-05-09T09:28:22.266Z,59.40
2023-05-09T09:31:23.503Z,57.48
2023-05-09T09:34:11.844Z,59.33
2023-05-09T09:37:00.320Z,58.65
2023-05-09T09:39:55.025Z,57.49
2023-05-09T09:42:45.825Z,57.72
2023-05-09T09:45:34.154Z,58.06
2023-05-09T09:48:25.486Z,59.70
2023-05-09T09:51:13.815Z,58.73
2023-05-09T09:54:03.300Z,56.79
2023-05-09T09:56:54.306Z,57.47
2023-05-09T09:59:59.302Z,57.15
2023-05-09T10:02:49.400Z,57.27
2023-05-09T10:05:40.802Z,57.91
2023-05-09T10:08:29.214Z,56.91
2023-05-09T10:11:17.657Z,55.61
2023-05-09T10:14:06.236Z,56.54
2023-05-09T10:16:57.735Z,56.91
2023-05-09T10:19:47.623Z,56.45
2023-05-09T10:22:37.410Z,56.12
2023-05-09T10:25:29.467Z,56.56
2023-05-09T10:28:20.010Z,53.59
2023-05-09T10:31:13.800Z,54.57
2023-05-09T10:34:07.041Z,54.77
2023-05-09T10:36:55.819Z,56.30
2023-05-09T10:39:45.031Z,53.97
2023-05-09T10:42:33.590Z,53.88
2023-05-09T10:45:22.777Z,53.29
2023-05-09T10:48:12.400Z,53.56
2023-05-09T10:51:02.629Z,51.23
2023-05-09T10:53:52.276Z,51.08
2023-05-09T10:56:40.874Z,51.24
2023-05-09T10:59:37.794Z,52.56
2023-05-09T11:02:29.398Z,52.25
2023-05-09T11:05:19.201Z,50.26
2023-05-09T11:08:26.328Z,48.78
2023-05-09T11:11:25.474Z,50.49
2023-05-09T11:14:34.966Z,50.09
2023-05-09T11:17:30.148Z,50.25
2023-05-09T11:20:18.629Z,49.22
2023-05-09T11:23:07.430Z,50.29
2023-05-09T11:26:06.543Z,48.98
2023-05-09T11:28:56.825Z,49.14
2023-05-09T11:32:06.390Z,49.55
2023-05-09T11:35:07.066Z,51.50
2023-05-09T11:38:01.798Z,49.93
2023-05-09T11:40:50.142Z,49.65
2023-05-09T11:43:40.553Z,48.76
2023-05-09T11:46:29.318Z,47.59
2023-05-09T11:49:19.448Z,45.91
2023-05-09T11:52:07.866Z,49.19
2023-05-09T11:54:56.180Z,48.81
2023-05-09T11:57:46.832Z,46.91
2023-05-09T12:00:37.291Z,47.05
2023-05-09T12:03:26.504Z,46.85
2023-05-09T12:06:17.477Z,46.57
2023-05-09T12:09:06.209Z,46.17
2023-05-09T12:11:54.566Z,45.49
2023-05-09T12:14:43.081Z,43.58
2023-05-09T12:17:33.031Z,42.89
2023-05-09T12:20:21.471Z,46.00
2023-05-09T12:23:10.916Z,44.32
2023-05-09T12:25:59.380Z,45.18
2023-05-09T12:28:48.764Z,46.39
2023-05-09T12:31:37.426Z,43.23
2023-05-09T12:34:27.430Z,44.56
2023-05-09T12:37:17.349Z,45.27
2023-05-09T12:40:07.642Z,43.64
2023-05-09T12:43:00.953Z,45.49
2023-05-09T12:45:53.727Z,43.15
2023-05-09T12:48:43.949Z,44.67
2023-05-09T12:51:33.618Z,43.96
2023-05-09T12:54:23.377Z,43.44
2023-05-09T12:57:22.771Z,44.15
2023-05-09T13:00:12.216Z,41.69
2023-05-09T13:03:00.965Z,42.63
2023-05-09T13:05:56.215Z,43.88
2023-05-09T13:08:57.791Z,43.50
2023-05-09T13:11:46.807Z,43.13
2023-05-09T13:14:35.249Z,43.00
2023-05-09T13:17:23.702Z,42.22
2023-05-09T13:20:12.731Z,42.15
2023-05-09T13:23:01.989Z,42.56
2023-05-09T13:25:51.658Z,42.61
2023-05-09T13:28:40.114Z,43.49
2023-05-09T13:31:28.469Z,41.62
2023-05-09T13:34:16.819Z,41.82
2023-05-09T13:37:05.154Z,43.61
2023-05-09T13:39:54.607Z,42.12
2023-05-09T13:42:44.411Z,42.68
2023-05-09T13:45:32.761Z,43.86
2023-05-09T13:48:21.017Z,42.17
2023-05-09T13:51:10.004Z,44.33
2023-05-09T13:53:58.370Z,43.60
2023-05-09T13:56:46.823Z,43.21
2023-05-09T13:59:36.531Z,42.55
2023-05-09T14:02:25.428Z,43.67
2023-05-09T14:05:13.773Z,41.09
2023-05-09T14:08:02.198Z,42.76
2023-05-09T14:10:51.150Z,41.42
2023-05-09T14:13:39.479Z,43.34
2023-05-09T14:16:29.352Z,42.54
2023-05-09T14:19:17.982Z,42.49
2023-05-09T14:22:06.325Z,41.98
2023-05-09T14:24:56.513Z,41.02
2023-05-09T14:27:44.865Z,41.52
2023-05-09T14:30:33.186Z,39.92
2023-05-09T14:33:23.015Z,41.01
2023-05-09T14:36:11.397Z,40.45
2023-05-09T14:38:59.872Z,41.61
2023-05-09T14:41:50.081Z,41.11
2023-05-09T14:44:39.384Z,41.67
2023-05-09T14:47:28.044Z,39.56
2023-05-09T14:50:17.989Z,40.23
2023-05-09T14:53:06.531Z,39.19
2023-05-09T14:55:55.064Z,39.98
2023-05-09T14:58:43.536Z,41.67
2023-05-09T15:01:31.991Z,42.71
2023-05-09T15:04:20.460Z,39.24
2023-05-09T15:07:10.414Z,39.01
2023-05-09T15:09:59.165Z,39.11
2023-05-09T15:12:47.564Z,40.07
2023-05-09T15:15:38.335Z,42.16
2023-05-09T15:18:28.630Z,39.66
2023-05-09T15:21:17.258Z,39.04
2023-05-09T15:24:07.848Z,39.72
2023-05-09T15:26:56.699Z,42.29
2023-05-09T15:29:45.094Z,38.62
2023-05-09T15:32:33.801Z,39.24
2023-05-09T15:35:22.360Z,38.81
2023-05-09T15:38:12.214Z,40.30
2023-05-09T15:41:01.936Z,40.99
2023-05-09T15:43:50.415Z,39.88
2023-05-09T15:46:39.718Z,38.32
2023-05-09T15:49:28.089Z,38.59
2023-05-09T15:52:16.425Z,38.85
2023-05-09T15:55:05.159Z,39.18
2023-05-09T15:57:54.891Z,39.68
2023-05-09T16:00:43.818Z,39.69
2023-05-09T16:03:32.745Z,40.30
2023-05-09T16:06:21.294Z,40.89
2023-05-09T16:09:10.236Z,40.58
2023-05-09T16:11:58.716Z,40.69
2023-05-09T16:14:48.467Z,41.35
2023-05-09T16:17:36.925Z,42.37
2023-05-09T16:20:25.306Z,41.34
2023-05-09T16:23:13.952Z,42.05
2023-05-09T16:26:02.329Z,42.85
2023-05-09T16:28:50.688Z,42.98
2023-05-09T16:31:40.946Z,44.05
2023-05-09T16:34:29.517Z,43.17
2023-05-09T16:37:18.967Z,43.51
2023-05-09T16:40:08.344Z,44.05
2023-05-09T16:42:56.687Z,44.54
2023-05-09T16:45:45.184Z,43.95
2023-05-09T16:48:35.046Z,44.08
2023-05-09T16:51:23.530Z,44.06
2023-05-09T16:54:12.478Z,44.87
2023-05-09T16:57:00.968Z,44.65
2023-05-09T16:59:49.456Z,44.66
2023-05-09T17:02:38.254Z,45.66
2023-05-09T17:05:28.655Z,44.79
2023-05-09T17:08:17.020Z,44.95
2023-05-09T17:11:06.077Z,45.56
2023-05-09T17:13:54.550Z,45.90
2023-05-09T17:16:42.939Z,45.20
2023-05-09T17:19:32.657Z,46.46
2023-05-09T17:22:23.327Z,47.54
2023-05-09T17:25:11.746Z,47.62
2023-05-09T17:28:00.165Z,47.27
2023-05-09T17:30:48.663Z,47.52
2023-05-09T17:33:37.401Z,47.42
2023-05-09T17:36:25.960Z,48.21
2023-05-09T17:39:15.688Z,48.32
2023-05-09T17:42:04.091Z,47.82
2023-05-09T17:44:52.812Z,48.37
2023-05-09T17:47:41.444Z,47.45
2023-05-09T17:50:29.899Z,47.66
2023-05-09T17:53:18.826Z,48.05
2023-05-09T17:56:08.559Z,47.54
2023-05-09T17:58:57.103Z,47.72
2023-05-09T18:01:45.497Z,47.12
2023-05-09T18:04:34.472Z,48.17
2023-05-09T18:07:22.996Z,48.03
2023-05-09T18:10:11.946Z,47.66
2023-05-09T18:13:01.740Z,48.60
2023-05-09T18:15:50.162Z,47.91
2023-05-09T18:18:38.563Z,47.97
2023-05-09T18:21:27.023Z,48.67
2023-05-09T18:24:16.996Z,48.18
2023-05-09T18:27:05.662Z,48.46
2023-05-09T18:29:55.606Z,48.75
2023-05-09T18:32:44.033Z,49.22
2023-05-09T18:35:32.617Z,48.90
2023-05-09T18:38:21.300Z,49.55
2023-05-09T18:41:11.387Z,49.42
2023-05-09T18:43:59.731Z,49.22
2023-05-09T18:46:49.540Z,49.61
2023-05-09T18:49:38.940Z,49.27
2023-05-09T18:52:27.712Z,50.11
2023-05-09T18:55:19.675Z,49.81
2023-05-09T18:58:08.212Z,50.08
2023-05-09T19:00:56.729Z,49.43
2023-05-09T19:03:47.667Z,49.02
2023-05-09T19:06:36.152Z,49.22
2023-05-09T19:09:24.647Z,49.37
2023-05-09T19:12:13.234Z,49.67
2023-05-09T19:15:01.787Z,50.08
2023-05-09T19:17:52.388Z,50.28
2023-05-09T19:20:42.198Z,50.34
2023-05-09T19:23:31.118Z,50.38
2023-05-09T19:26:21.725Z,50.73
2023-05-09T19:29:10.207Z,50.76
2023-05-09T19:31:58.672Z,51.01
2023-05-09T19:34:47.355Z,50.39
2023-05-09T19:37:37.582Z,50.62
2023-05-09T19:40:26.023Z,50.48
2023-05-09T19:43:14.483Z,50.76
2023-05-09T19:46:02.952Z,50.91
2023-05-09T19:48:51.392Z,51.21
2023-05-09T19:51:40.525Z,51.21
2023-05-09T19:54:32.040Z,51.13
2023-05-09T19:57:20.563Z,51.75
2023-05-09T20:00:09.995Z,52.04
2023-05-09T20:03:00.831Z,51.59
2023-05-09T20:05:49.418Z,51.54
2023-05-09T20:08:37.960Z,51.53
2023-05-09T20:11:27.822Z,51.97
2023-05-09T20:14:16.296Z,51.99
2023-05-09T20:17:05.305Z,51.96
2023-05-09T20:19:53.769Z,52.09
2023-05-09T20:22:42.299Z,52.56
2023-05-09T20:25:30.883Z,52.53
2023-05-09T20:28:22.417Z,52.67
2023-05-09T20:31:11.011Z,52.85
2023-05-09T20:34:00.323Z,52.89
2023-05-09T20:36:52.218Z,53.06
2023-05-09T20:39:40.923Z,53.68
2023-05-09T20:42:29.919Z,53.99
2023-05-09T20:45:19.774Z,53.75
2023-05-09T20:48:08.533Z,54.03
2023-05-09T20:50:57.008Z,54.27
2023-05-09T20:53:45.474Z,54.07
2023-05-09T20:56:35.426Z,54.87
2023-05-09T20:59:23.991Z,54.19
2023-05-09T21:02:13.878Z,53.99
2023-05-09T21:05:02.347Z,52.96
2023-05-09T21:07:50.666Z,54.28
2023-05-09T21:10:39.004Z,54.30
2023-05-09T21:13:27.496Z,53.99
2023-05-09T21:16:17.155Z,54.84
2023-05-09T21:19:08.341Z,54.53
2023-05-09T21:21:56.698Z,54.87
2023-05-09T21:24:45.066Z,54.79
2023-05-09T21:27:33.496Z,55.10
2023-05-09T21:30:21.887Z,55.33
2023-05-09T21:33:10.315Z,54.05
2023-05-09T21:36:00.236Z,54.09
2023-05-09T21:38:48.630Z,53.91
2023-05-09T21:41:37.356Z,54.31
2023-05-09T21:44:25.756Z,54.37
2023-05-09T21:47:14.315Z,54.98
2023-05-09T21:50:04.210Z,56.34
2023-05-09T21:52:56.152Z,56.06
2023-05-09T21:55:44.495Z,56.58
2023-05-09T21:58:32.869Z,57.10
2023-05-09T22:01:21.344Z,57.76
2023-05-09T22:04:09.778Z,57.85
2023-05-09T22:06:58.148Z,57.91
2023-05-09T22:09:48.430Z,58.51
2023-05-09T22:12:36.849Z,58.51
2023-05-09T22:15:25.277Z,57.64
2023-05-09T22:18:13.744Z,57.31
2023-05-09T22:21:02.174Z,57.07
2023-05-09T22:23:50.525Z,57.07
2023-05-09T22:26:41.331Z,56.81
2023-05-09T22:29:29.780Z,56.79
2023-05-09T22:32:18.161Z,57.27
2023-05-09T22:35:07.303Z,56.76
2023-05-09T22:37:55.663Z,56.80
2023-05-09T22:40:44.614Z,56.33
2023-05-09T22:43:39.272Z,56.00
2023-05-09T22:46:28.286Z,56.46
2023-05-09T22:49:16.682Z,56.67
2023-05-09T22:52:05.375Z,56.48
2023-05-09T22:54:53.794Z,56.41
2023-05-09T22:57:42.337Z,59.43
2023-05-09T23:00:32.436Z,58.61
2023-05-09T23:03:20.895Z,59.49
2023-05-09T23:06:09.373Z,59.25
2023-05-09T23:08:57.716Z,60.30
2023-05-09T23:11:46.066Z,60.84
2023-05-09T23:14:34.391Z,60.56
2023-05-09T23:17:24.423Z,60.88
2023-05-09T23:20:13.599Z,62.73
2023-05-09T23:23:03.603Z,63.26
2023-05-09T23:25:52.544Z,65.79
2023-05-09T23:28:40.898Z,66.15
2023-05-09T23:31:29.406Z,67.43
2023-05-09T23:34:19.162Z,68.80
2023-05-09T23:37:07.582Z,68.99
2023-05-09T23:39:56.162Z,72.44
2023-05-09T23:42:44.573Z,73.33
2023-05-09T23:45:33.010Z,75.32
2023-05-09T23:48:21.380Z,76.26
2023-05-09T23:51:11.115Z,78.72
2023-05-09T23:53:59.471Z,79.37
2023-05-09T23:56:47.888Z,80.07
2023-05-09T23:59:36.219Z,80.24
